Timeline UpdatesTrip UpdatesNews PostsPvt PostsTravel TipsAdmin PostsConv PostsFollowed PostsChat RequestsBlog PostsPNR Posts

Disclaimer
Search
 
 
Wed Apr 16, 2014 12:48:04 ISTHomeTrainsΣChainsAtlasPNRForumGalleryNewsFAQTripsMembersLoginFeedback
No Recent News for this Train
Other Trains in the News **new
Latest...
It has been decided to extend the service of 75719/75720 Malda Town – Coochbehar DEMU upto Dinhata w.e.f. 2nd August 2013 for the benefit of travelling public of Dinhata sub-division of North Bengal. The 75719 Malda Town - Coochbehar DEMU will now leave Coochbehar at 18.50 hrs to arrive at Dinhata at 19.30 hours with stoppages at Dewanhat, Bhetaguri and Dinhata Collect Halt.
Thu Aug 01, 2013 (11:38AM)
⇐ Return Journey: Train# 75720

75401⇒75719/MaldaTown-Dinhata DMU

Dec 13 2013 (11:46PM)
Change Departure Station:
Change Arrival Station:
Post a Train Travel TipPost a Train Travel Tip **new
Post a Comment/Question/Picture/VideoPost a Comment/Question/Picture/Video
Inaugural Run
Fri Aug 02, 2013
Pantry/Catering
✕ NO Pantry Car
✕ NO Catering
RSA - Rake Sharing
Rake/Coach Composition
Loco
News    PNR    Forum    Time-Table    Availability    Fare Chart    Map    Arr/Dep History    Trips    Gallery    ΣChains    X/O    Timeline    
Travel Time: 8h 51m    44 halts    Distance: 300 km    Avg Speed: 33 km/hr
Type: DEMU
Zone: NFR/Northeast Frontier
Departs @ 09:54 (Avg 52m late)
Platform# ???
SMTWTFS
Babhabgaon Halt/BAHN 
Arrives @ 18:45 (Avg 2h 3m late)
Platform# 1
SMTWTFS
Cooch Behar/COB 

44 halts. 46 intermediate Stations between Babhabgaon Halt and Cooch Behar

Show ALL intermediate Stations  Show Old Time-Table

#CodeStation NameX/OArrivesAvgDepartsAvgHaltPFDay#KmSpeedElevZoneAddress
1MLDTMalda Town (5)  -08:10+0--1-64.74330mERDist - Malda, West Bengal
2OMLFOld Malda Junction (3)X  08:18+1708:19+181m--1-59.06131mNFRDist - Malda, West Bengal
3ADFAdinaX  08:26+2108:27+221m--1-51.95633mNFRNational Highway 34, West Bengal
4EKIEklakhi Junction (3)  08:34+2408:35+271m--1-45.44133mNFRDistt. - Malda, West Bengal
5MBCMahananda Bridge  08:39+2908:40+291m--1-42.65728mNFRMahananda, West Bengal
6KMRJKumarganj  08:44+2908:45+331m--1-38.87228mNFRNational Highway 34, West Bengal
7SRPUSripur Halt (2)  08:49+3608:50+361m--1-34.04927mNFRSripur, West Bengal
8SMSamsi (2)  08:55+3708:56+411m--1-30.06032mNFRdist - Malda, West Bengal
9MFZMalahar  09:02+4409:03+441m--1-23.97531mNFRNational Highway 81, West Bengal
10BKRDBhaluka Road FO  09:08+4409:29+2821m--1-17.7-30mNFRBhaluka, West Bengal
11MQGMilangarh  09:30+3509:31+351m--1-14.24129mNFRMilangarh, West Bengal
12HCRHarischandrapurX  09:38+3509:39+421m--1-9.55731mNFRHarischandrapur, West Bengal
13KDPRKumedpur Junction (4)  09:47+4509:48+481m--1-1.92332mNFRDist. - Malda, West Bengal
14BAHN»Babhabgaon Halt»  09:53+5209:54+521m--10.07231mNFRBabhabgaon, West Bengal
15KWEKhurial (2)  09:58+5209:59+541m--14.85733mNFRKhurial, Bihar
16KMPHKamalpur Halt  10:02+1:0110:03+1:011m--17.79632mNFRKamalpur, Bihar
17AZRAzamnagar Road (2)X  10:06+1:0010:07+1:041m--112.55234mNFRAzamnagar, Bihar
18BWPBBhawanipur Bihar  10:12+1:0910:13+1:091m--116.84836mNFRBhawanipur, Bihar
19MFAMukuria Junction (2)  10:18+1:0910:19+1:151m--120.94332mNFRMukuria, Bihar
20BOEBarsoi Junction (3)X  10:25+1:1810:27+1:192m--125.17337mNFRdist- katihar, Bihar
21SJGMSanjay GramX  10:34+1:1910:35+1:191m--133.61934mNFRSanjay Gram, West Bengal
22SUDSudhani (2)  10:46+1:1910:47+1:251m--137.07538mNFRState Highway 65, Bihar
23AHLAjharail  10:52+1:2910:53+1:291m--143.23437mNFRNational Highway 34, West Bengal
24TETATelta (2)  10:58+1:2910:59+1:331m--146.06140mNFRRupauli, Bihar
25DLKDalkhola (3)X  11:07+1:3611:09+1:372m--154.26144mNFRDalkola, West Bengal
26SJKLSurja Kamal (2)  11:16+1:3911:17+1:411m--161.24244mNFRNational Highway 31, West Bengal
27KKAKanki (3)XO  11:28+1:4011:29+1:421m--168.91647mNFRKanki, West Bengal
28HWRHatwar (2)O  11:49+1:2911:50+1:351m--174.31546mNFRNational Highway 31, West Bengal
29KNEKishanGanj (3)X  12:23+1:1412:25+1:152m--182.76152mNFRKishanganj, Bihar
30PJPPanjipara (3)X  12:33+1:1912:34+1:221m--190.96655mNFRNational Highway 31, West Bengal
31GILGaisal (3)  12:42+1:2412:43+1:251m--199.65762mNFRNational Highway 31, West Bengal
32GEORGunjaria  12:49+1:2812:50+1:281m--1105.36864mNFRNational Highway 31, West Bengal
33AUBAluabari Road (2)X  12:57+1:2912:59+1:322m--1113.3580mNFRDist - uttar Dinajpur, West Bengal
34DBQDhulabari  13:04+1:3313:05+1:331m--1118.16468mNFRKishanganj, Bihar
35MXJMangurjanX  13:11+1:3313:12+1:341m--1124.56169mNFRMangurjan, West Bengal
36TMHTin Mile Hat  13:18+1:3713:19+1:411m--1130.76774mNFRTin Mile, West Bengal
37DMZDumdangiX  13:27+1:4413:28+1:471m--1139.56886mNFRHaftia Rd, West Bengal
38CATChattar Hat (2)  13:36+1:4913:37+1:521m--1148.66191mNFRChattar, West Bengal
39NJBNijbariX  13:44+1:5513:45+1:551m--1155.837104mNFRFulbari Ghoshpukur Bypass, West Bengal
40RNIRangapani (2)  13:56+1:5513:57+2:001m--1162.616114mNFRSILIGURI Dist - Darjeeling, West Bengal
41NJPNew Jalpaiguri Junction (8)X  14:25+1:3614:35+1:4210m--1170.052114mNFRCity-Siliguri . Dist-Jalpaiguri, West Bengal
42ABFCAmbari Falakata (2)X  14:45+2:0314:46+2:151m--1178.763105mNFRdist - jalpaiguri 735201, West Bengal
43BLKBelakoba (1)X  14:55+2:1814:56+2:051m11188.11499mNFRDist - jalpaiguri, West Bengal
44RQJRaninagar Jalpaiguri Junction (3)X  15:30+2:0015:31+2:051m--1195.87291mNFRDIST - Jalpaiguri, West Bengal
45JPEJalpaiguri Road (2)  15:37+2:0715:38+2:121m11203.06689mNFRdist - Jalpaiguri 735102, West Bengal
46NQHNew Domohani (2)X  15:45+2:1415:46+2:161m11210.71984mNFRDist - JALPAIGURI, West Bengal
47NMXNew Maynaguri (2)  15:58+2:1215:59+2:161m--1214.55886mNFRDist - Jalpaiguri, West Bengal
48BYXABetgara (2)  16:04+2:1816:05+2:221m11219.36589mNFRDIST - Jalpaiguri, West Bengal
49ATMAltagram (2)X  16:13+2:2516:14+2:281m--1228.02785mNFRDist - Jalpaiguri, West Bengal
50DQGDhupguri (2)  16:29+2:2416:30+2:271m--1234.86875mNFRDist - Jalpaiguri, West Bengal
51KLGRKolai GramX  16:36+2:2916:37+2:301m--1241.53675mNFRFalakata Rd, West Bengal
52SXXSalbari (2)  16:48+2:2916:49+2:311m--1248.26769mNFRDist - jalpaiguri, West Bengal
53FLKFalakata (3)  16:57+2:3316:58+2:351m--1257.27867mNFRDist - Jalpaiguri, West Bengal
54GUZGumanihat (2)XO  17:06+2:3817:07+2:401m11267.61160mNFRKusaribari, West Bengal
55GDXGhoksadangaX  17:35+2:2517:36+2:271m--1272.84158mNFRSiliguri Rd, West Bengal
56SJRRSajherpar  17:47+2:2617:48+2:261m--1280.32254mNFRPundibari, West Bengal
57PQZPundibari (2)  18:00+2:2118:01+2:251m11284.82553mNFRDist - Coochbehar, West Bengal
58NCBNew Cooch Behar Junction (5)  18:25+2:1118:30+2:095m--1295.01847mNFRCooch Behar, West Bengal
59COB•Cooch Behar (1)•  18:45+2:0318:50+5:105m11299.55146mNFRCooch Behar, West Bengal
60DWTDewan Hat (1)  19:02-19:03-1m11309.74441mNFRdist - Coachbehar, West Bengal
61VTGBhetaguri (1)  19:08-19:09-1m11313.43643mNFRBhetaguri, West Bengal
62DCHDinhatta College Halt (1)  19:20-19:21-1m11320.01638mNFRDinhata, West Bengal
63DHHDinhata (2)  19:30----1322.4-39mNFRDist - Coochbehar, West Bengal
Scroll to Top
Scroll to Bottom